createdAt,value
2022-09-24T00:01:16.660Z,68.38
2022-09-24T00:03:50.152Z,68.63
2022-09-24T00:06:19.270Z,68.45
2022-09-24T00:08:47.551Z,68.84
2022-09-24T00:11:14.635Z,68.35
2022-09-24T00:13:41.763Z,68.45
2022-09-24T00:16:13.477Z,69.05
2022-09-24T00:18:40.962Z,68.56
2022-09-24T00:21:16.338Z,68.68
2022-09-24T00:23:43.446Z,69.09
2022-09-24T00:26:32.032Z,69.47
2022-09-24T00:28:59.328Z,69.61
2022-09-24T00:31:26.686Z,69.82
2022-09-24T00:33:54.372Z,70.44
2022-09-24T00:36:22.295Z,70.39
2022-09-24T00:38:54.195Z,70.02
2022-09-24T00:41:24.173Z,70.44
2022-09-24T00:43:51.546Z,70.13
2022-09-24T00:46:27.910Z,70.02
2022-09-24T00:48:58.743Z,70.96
2022-09-24T00:51:28.502Z,70.38
2022-09-24T00:53:59.993Z,71.16
2022-09-24T00:56:28.422Z,71.10
2022-09-24T00:58:57.217Z,71.15
2022-09-24T01:01:25.601Z,71.33
2022-09-24T01:03:55.471Z,70.74
2022-09-24T01:06:22.673Z,70.92
2022-09-24T01:08:49.512Z,70.94
2022-09-24T01:11:41.021Z,71.29
2022-09-24T01:14:39.224Z,70.49
2022-09-24T01:17:32.867Z,70.61
2022-09-24T01:20:26.812Z,71.00
2022-09-24T01:23:05.404Z,71.00
2022-09-24T01:26:02.923Z,70.97
2022-09-24T01:29:05.965Z,71.34
2022-09-24T01:31:44.556Z,71.42
2022-09-24T01:34:15.781Z,71.05
2022-09-24T01:36:45.350Z,70.88
2022-09-24T01:39:14.620Z,70.92
2022-09-24T01:41:43.159Z,71.13
2022-09-24T01:44:11.724Z,71.29
2022-09-24T01:46:40.241Z,70.67
2022-09-24T01:49:08.210Z,71.23
2022-09-24T01:51:44.056Z,70.94
2022-09-24T01:54:28.516Z,70.98
2022-09-24T01:57:13.298Z,70.61
2022-09-24T01:59:47.132Z,70.81
2022-09-24T02:02:30.494Z,70.29
2022-09-24T02:05:12.979Z,70.94
2022-09-24T02:07:47.047Z,70.62
2022-09-24T02:10:16.902Z,69.89
2022-09-24T02:12:47.149Z,70.33
2022-09-24T02:15:20.896Z,70.44
2022-09-24T02:17:53.572Z,70.52
2022-09-24T02:20:23.219Z,69.56
2022-09-24T02:22:51.714Z,69.95
2022-09-24T02:25:25.143Z,70.50
2022-09-24T02:27:51.814Z,69.86
2022-09-24T02:30:18.382Z,70.95
2022-09-24T02:32:45.074Z,70.14
2022-09-24T02:35:12.809Z,70.97
2022-09-24T02:37:42.414Z,70.47
2022-09-24T02:40:12.185Z,70.37
2022-09-24T02:42:41.102Z,70.95
2022-09-24T02:45:08.462Z,70.48
2022-09-24T02:47:35.019Z,70.79
2022-09-24T02:50:01.671Z,71.05
2022-09-24T02:52:28.220Z,71.02
2022-09-24T02:54:54.758Z,70.83
2022-09-24T02:57:21.245Z,70.95
2022-09-24T02:59:47.929Z,70.53
2022-09-24T03:02:15.392Z,70.52
2022-09-24T03:04:42.646Z,70.63
2022-09-24T03:07:10.291Z,71.21
2022-09-24T03:09:36.961Z,71.26
2022-09-24T03:12:05.224Z,70.59
2022-09-24T03:14:31.966Z,70.91
2022-09-24T03:16:58.690Z,70.35
2022-09-24T03:19:25.213Z,70.97
2022-09-24T03:21:51.741Z,71.18
2022-09-24T03:24:18.239Z,70.55
2022-09-24T03:26:45.354Z,70.86
2022-09-24T03:29:11.898Z,70.72
2022-09-24T03:31:38.501Z,70.21
2022-09-24T03:34:05.274Z,70.75
2022-09-24T03:36:31.869Z,70.73
2022-09-24T03:38:58.370Z,70.86
2022-09-24T03:41:27.508Z,70.77
2022-09-24T03:43:54.791Z,70.61
2022-09-24T03:46:22.109Z,70.32
2022-09-24T03:48:49.167Z,70.38
2022-09-24T03:51:20.297Z,70.64
2022-09-24T03:53:47.915Z,70.85
2022-09-24T03:56:15.632Z,70.66
2022-09-24T03:58:47.697Z,71.20
2022-09-24T04:01:14.519Z,70.79
2022-09-24T04:03:41.100Z,70.28
2022-09-24T04:06:07.915Z,70.09
2022-09-24T04:08:34.469Z,70.20
2022-09-24T04:11:01.094Z,69.99
2022-09-24T04:13:27.669Z,70.02
2022-09-24T04:15:55.124Z,70.35
2022-09-24T04:18:22.181Z,70.25
2022-09-24T04:20:48.837Z,69.22
2022-09-24T04:23:15.484Z,69.51
2022-09-24T04:25:42.371Z,70.22
2022-09-24T04:28:09.944Z,70.01
2022-09-24T04:30:38.159Z,69.62
2022-09-24T04:33:04.789Z,69.61
2022-09-24T04:35:36.006Z,69.85
2022-09-24T04:38:04.048Z,69.50
2022-09-24T04:40:31.434Z,69.54
2022-09-24T04:42:58.139Z,69.62
2022-09-24T04:45:25.115Z,69.97
2022-09-24T04:47:53.605Z,70.03
2022-09-24T04:50:20.660Z,70.38
2022-09-24T04:52:47.292Z,70.10
2022-09-24T04:55:14.188Z,69.93
2022-09-24T04:57:41.435Z,70.06
2022-09-24T05:00:15.353Z,69.69
2022-09-24T05:02:42.801Z,68.00
2022-09-24T05:05:11.001Z,67.22
2022-09-24T05:07:38.734Z,65.58
2022-09-24T05:10:06.761Z,65.57
2022-09-24T05:12:35.433Z,64.37
2022-09-24T05:15:02.590Z,64.20
2022-09-24T05:17:29.195Z,63.66
2022-09-24T05:19:57.893Z,62.93
2022-09-24T05:22:27.511Z,62.28
2022-09-24T05:24:54.528Z,61.83
2022-09-24T05:27:21.771Z,62.21
2022-09-24T05:29:48.286Z,62.02
2022-09-24T05:32:19.938Z,61.76
2022-09-24T05:34:46.769Z,62.02
2022-09-24T05:37:14.840Z,61.45
2022-09-24T05:39:41.814Z,61.47
2022-09-24T05:42:15.754Z,61.42
2022-09-24T05:44:48.628Z,61.20
2022-09-24T05:47:18.498Z,61.08
2022-09-24T05:49:45.214Z,60.90
2022-09-24T05:52:11.932Z,61.10
2022-09-24T05:54:38.467Z,60.59
2022-09-24T05:57:05.003Z,60.66
2022-09-24T05:59:32.291Z,60.49
2022-09-24T06:01:58.838Z,60.26
2022-09-24T06:04:25.490Z,60.13
2022-09-24T06:06:52.309Z,59.27
2022-09-24T06:09:18.825Z,59.92
2022-09-24T06:11:45.910Z,59.57
2022-09-24T06:14:13.314Z,59.29
2022-09-24T06:16:40.013Z,59.26
2022-09-24T06:19:06.701Z,59.62
2022-09-24T06:21:33.234Z,59.13
2022-09-24T06:23:59.779Z,58.32
2022-09-24T06:26:27.337Z,58.88
2022-09-24T06:28:54.379Z,59.23
2022-09-24T06:31:21.315Z,59.55
2022-09-24T06:33:48.154Z,58.99
2022-09-24T06:36:14.789Z,58.92
2022-09-24T06:38:41.933Z,58.83
2022-09-24T06:41:10.160Z,58.60
2022-09-24T06:43:37.497Z,58.70
2022-09-24T06:46:05.041Z,59.15
2022-09-24T06:48:32.209Z,59.18
2022-09-24T06:50:58.827Z,59.19
2022-09-24T06:53:26.063Z,59.22
2022-09-24T06:55:53.402Z,59.55
2022-09-24T06:58:21.037Z,59.43
2022-09-24T07:01:06.645Z,59.61
2022-09-24T07:03:35.005Z,59.44
2022-09-24T07:06:05.142Z,59.65
2022-09-24T07:08:32.108Z,59.26
2022-09-24T07:10:59.025Z,59.43
2022-09-24T07:13:25.691Z,59.32
2022-09-24T07:15:52.899Z,59.85
2022-09-24T07:18:20.514Z,60.52
2022-09-24T07:20:54.752Z,59.97
2022-09-24T07:23:21.889Z,60.85
2022-09-24T07:25:49.333Z,60.54
2022-09-24T07:28:16.921Z,60.50
2022-09-24T07:30:43.631Z,60.29
2022-09-24T07:33:10.214Z,60.27
2022-09-24T07:35:40.022Z,59.93
2022-09-24T07:38:12.086Z,60.12
2022-09-24T07:40:38.672Z,60.00
2022-09-24T07:43:06.981Z,60.17
2022-09-24T07:45:34.041Z,59.77
2022-09-24T07:48:02.760Z,59.77
2022-09-24T07:50:32.427Z,60.28
2022-09-24T07:52:59.132Z,59.79
2022-09-24T07:55:26.113Z,59.57
2022-09-24T07:57:54.910Z,59.16
2022-09-24T08:00:22.928Z,58.42
2022-09-24T08:02:50.162Z,58.35
2022-09-24T08:05:18.170Z,57.98
2022-09-24T08:07:55.751Z,58.05
2022-09-24T08:10:23.147Z,57.91
2022-09-24T08:12:50.457Z,57.77
2022-09-24T08:15:17.144Z,57.85
2022-09-24T08:17:43.765Z,57.79
2022-09-24T08:20:10.764Z,58.23
2022-09-24T08:22:37.346Z,58.32
2022-09-24T08:25:04.815Z,58.08
2022-09-24T08:27:32.945Z,58.09
2022-09-24T08:30:00.710Z,58.25
2022-09-24T08:32:28.993Z,58.15
2022-09-24T08:34:55.560Z,58.35
2022-09-24T08:37:22.510Z,58.48
2022-09-24T08:39:49.113Z,58.11
2022-09-24T08:42:31.511Z,58.26
2022-09-24T08:45:17.344Z,58.16
2022-09-24T08:47:55.107Z,57.73
2022-09-24T08:50:29.278Z,58.44
2022-09-24T08:53:06.595Z,58.83
2022-09-24T08:55:49.941Z,58.21
2022-09-24T08:58:55.192Z,58.31
2022-09-24T09:01:38.906Z,58.68
2022-09-24T09:04:14.274Z,58.76
2022-09-24T09:07:06.409Z,58.75
2022-09-24T09:10:11.104Z,58.78
2022-09-24T09:12:42.571Z,58.44
2022-09-24T09:15:18.071Z,58.07
2022-09-24T09:18:05.095Z,58.16
2022-09-24T09:20:41.247Z,58.39
2022-09-24T09:23:13.941Z,58.26
2022-09-24T09:25:47.320Z,57.76
2022-09-24T09:28:15.606Z,57.69
2022-09-24T09:31:00.380Z,58.19
2022-09-24T09:33:47.928Z,58.02
2022-09-24T09:36:37.164Z,58.23
2022-09-24T09:39:59.109Z,57.49
2022-09-24T09:42:36.153Z,57.36
2022-09-24T09:45:07.537Z,56.78
2022-09-24T09:47:45.948Z,57.39
2022-09-24T09:50:27.540Z,57.05
2022-09-24T09:52:55.582Z,57.00
2022-09-24T09:55:26.401Z,56.52
2022-09-24T09:57:54.416Z,55.67
2022-09-24T10:00:27.603Z,55.54
2022-09-24T10:02:54.987Z,55.57
2022-09-24T10:05:27.361Z,55.31
2022-09-24T10:07:58.270Z,55.57
2022-09-24T10:10:28.952Z,54.75
2022-09-24T10:13:09.051Z,55.20
2022-09-24T10:15:49.085Z,54.98
2022-09-24T10:18:16.594Z,54.77
2022-09-24T10:20:48.224Z,54.80
2022-09-24T10:23:22.967Z,54.34
2022-09-24T10:25:59.881Z,53.60
2022-09-24T10:28:46.426Z,53.55
2022-09-24T10:31:29.603Z,53.46
2022-09-24T10:33:59.116Z,53.18
2022-09-24T10:36:32.649Z,51.82
2022-09-24T10:39:08.397Z,53.03
2022-09-24T10:41:36.006Z,52.04
2022-09-24T10:44:11.700Z,50.33
2022-09-24T10:46:56.940Z,51.30
2022-09-24T10:49:27.402Z,49.88
2022-09-24T10:52:10.274Z,49.74
2022-09-24T10:54:49.915Z,49.49
2022-09-24T10:57:39.713Z,49.60
2022-09-24T11:00:18.389Z,48.72
2022-09-24T11:02:58.041Z,49.46
2022-09-24T11:05:49.861Z,49.56
2022-09-24T11:08:46.943Z,49.40
2022-09-24T11:11:37.640Z,49.22
2022-09-24T11:14:23.764Z,49.47
2022-09-24T11:17:05.038Z,48.78
2022-09-24T11:19:46.759Z,48.92
2022-09-24T11:22:17.505Z,48.25
2022-09-24T11:24:53.369Z,48.67
2022-09-24T11:27:50.855Z,48.34
2022-09-24T11:30:24.915Z,48.21
2022-09-24T11:33:29.803Z,48.37
2022-09-24T11:36:13.693Z,48.72
2022-09-24T11:39:08.227Z,49.01
2022-09-24T11:41:37.423Z,48.49
2022-09-24T11:44:11.289Z,48.63
2022-09-24T11:46:48.874Z,48.19
2022-09-24T11:49:24.490Z,48.94
2022-09-24T11:52:11.512Z,50.00
2022-09-24T11:54:46.675Z,49.49
2022-09-24T11:57:27.948Z,49.72
2022-09-24T11:59:54.543Z,50.27
2022-09-24T12:02:30.372Z,50.11
2022-09-24T12:05:03.150Z,50.20
2022-09-24T12:07:40.385Z,51.72
2022-09-24T12:10:32.934Z,50.83
2022-09-24T12:13:14.513Z,50.19
2022-09-24T12:15:50.606Z,50.48
2022-09-24T12:18:54.185Z,50.02
2022-09-24T12:21:28.243Z,49.33
2022-09-24T12:24:05.104Z,49.29
2022-09-24T12:26:37.911Z,49.39
2022-09-24T12:29:25.926Z,49.19
2022-09-24T12:32:22.519Z,49.11
2022-09-24T12:34:59.918Z,49.23
2022-09-24T12:37:34.271Z,49.66
2022-09-24T12:40:53.309Z,49.65
2022-09-24T12:43:28.165Z,49.62
2022-09-24T12:46:04.742Z,49.45
2022-09-24T12:48:36.886Z,49.44
2022-09-24T12:51:04.737Z,49.30
2022-09-24T12:53:41.909Z,48.93
2022-09-24T12:56:10.363Z,49.25
2022-09-24T12:58:44.928Z,48.95
2022-09-24T13:01:26.871Z,48.95
2022-09-24T13:04:15.096Z,49.17
2022-09-24T13:06:43.868Z,48.32
2022-09-24T13:09:35.478Z,48.18
2022-09-24T13:12:18.088Z,47.11
2022-09-24T13:15:08.050Z,47.07
2022-09-24T13:17:38.371Z,47.01
2022-09-24T13:20:28.415Z,46.85
2022-09-24T13:23:31.754Z,46.65
2022-09-24T13:26:02.991Z,46.02
2022-09-24T13:28:38.701Z,46.53
2022-09-24T13:31:21.352Z,46.62
2022-09-24T13:33:51.513Z,47.09
2022-09-24T13:36:35.602Z,47.58
2022-09-24T13:39:21.333Z,48.57
2022-09-24T13:42:06.416Z,48.29
2022-09-24T13:44:40.236Z,48.77
2022-09-24T13:47:27.596Z,49.50
2022-09-24T13:50:03.739Z,49.65
2022-09-24T13:52:38.503Z,50.13
2022-09-24T13:55:17.713Z,50.47
2022-09-24T13:57:46.290Z,50.21
2022-09-24T14:00:16.221Z,50.99
2022-09-24T14:02:53.694Z,50.44
2022-09-24T14:05:22.024Z,50.59
2022-09-24T14:08:06.705Z,50.57
2022-09-24T14:10:33.752Z,50.69
2022-09-24T14:13:22.991Z,49.96
2022-09-24T14:15:55.652Z,50.55
2022-09-24T14:18:23.635Z,49.67
2022-09-24T14:21:12.816Z,50.53
2022-09-24T14:23:48.234Z,50.72
2022-09-24T14:26:32.944Z,50.69
2022-09-24T14:29:03.619Z,50.12
2022-09-24T14:31:30.453Z,50.91
2022-09-24T14:34:01.688Z,51.16
2022-09-24T14:36:29.345Z,50.54
2022-09-24T14:39:02.748Z,49.25
2022-09-24T14:41:31.998Z,48.62
2022-09-24T14:44:03.803Z,47.81
2022-09-24T14:46:48.710Z,48.64
2022-09-24T14:49:27.265Z,48.37
2022-09-24T14:52:01.862Z,48.65
2022-09-24T14:54:35.468Z,48.30
2022-09-24T14:57:16.953Z,47.84
2022-09-24T14:59:44.957Z,47.88
2022-09-24T15:02:17.254Z,47.52
2022-09-24T15:04:50.104Z,47.85
2022-09-24T15:07:24.012Z,47.89
2022-09-24T15:09:53.240Z,48.04
2022-09-24T15:12:30.951Z,47.95
2022-09-24T15:14:57.517Z,47.81
2022-09-24T15:17:29.125Z,47.67
2022-09-24T15:19:57.996Z,48.22
2022-09-24T15:22:29.385Z,47.94
2022-09-24T15:25:01.646Z,47.48
2022-09-24T15:27:31.328Z,48.08
2022-09-24T15:29:59.992Z,48.26
2022-09-24T15:32:32.492Z,48.12
2022-09-24T15:34:59.734Z,47.78
2022-09-24T15:37:28.848Z,47.45
2022-09-24T15:40:05.243Z,47.32
2022-09-24T15:42:31.898Z,46.52
2022-09-24T15:44:58.960Z,47.50
2022-09-24T15:47:25.612Z,46.68
2022-09-24T15:49:52.211Z,46.94
2022-09-24T15:52:27.075Z,47.13
2022-09-24T15:54:55.833Z,46.52
2022-09-24T15:57:26.553Z,45.75
2022-09-24T15:59:53.661Z,45.65
2022-09-24T16:02:24.872Z,45.30
2022-09-24T16:04:52.082Z,45.75
2022-09-24T16:07:19.028Z,46.61
2022-09-24T16:09:45.707Z,46.33
2022-09-24T16:12:15.233Z,46.78
2022-09-24T16:14:41.832Z,46.76
2022-09-24T16:17:08.372Z,46.90
2022-09-24T16:19:35.067Z,47.02
2022-09-24T16:22:01.669Z,47.54
2022-09-24T16:24:32.258Z,47.29
2022-09-24T16:26:59.511Z,47.83
2022-09-24T16:29:26.137Z,47.30
2022-09-24T16:31:52.663Z,48.04
2022-09-24T16:34:19.232Z,48.57
2022-09-24T16:36:45.789Z,48.27
2022-09-24T16:39:12.373Z,48.46
2022-09-24T16:41:39.213Z,48.43
2022-09-24T16:44:06.877Z,49.17
2022-09-24T16:46:33.436Z,48.99
2022-09-24T16:49:00.101Z,49.36
2022-09-24T16:51:26.695Z,49.66
2022-09-24T16:53:56.799Z,49.55
2022-09-24T16:56:24.008Z,50.33
2022-09-24T16:58:51.108Z,50.71
2022-09-24T17:01:20.077Z,50.34
2022-09-24T17:03:57.925Z,50.55
2022-09-24T17:06:27.266Z,51.38
2022-09-24T17:09:13.039Z,51.71
2022-09-24T17:11:40.553Z,52.04
2022-09-24T17:14:13.395Z,51.58
2022-09-24T17:16:39.992Z,52.53
2022-09-24T17:19:08.171Z,51.84
2022-09-24T17:21:38.932Z,52.61
2022-09-24T17:24:06.070Z,52.83
2022-09-24T17:26:32.997Z,53.47
2022-09-24T17:28:59.522Z,52.98
2022-09-24T17:31:26.950Z,53.79
2022-09-24T17:33:58.460Z,53.65
2022-09-24T17:36:26.823Z,54.08
2022-09-24T17:38:53.776Z,54.79
2022-09-24T17:41:20.407Z,54.51
2022-09-24T17:43:48.088Z,55.32
2022-09-24T17:46:17.940Z,55.47
2022-09-24T17:48:46.374Z,55.33
2022-09-24T17:51:16.200Z,55.57
2022-09-24T17:53:43.309Z,56.09
2022-09-24T17:56:12.498Z,55.57
2022-09-24T17:58:44.133Z,56.45
2022-09-24T18:01:14.329Z,56.41
2022-09-24T18:03:41.412Z,56.79
2022-09-24T18:06:11.066Z,56.93
2022-09-24T18:08:42.461Z,56.51
2022-09-24T18:11:10.555Z,56.37
2022-09-24T18:13:37.380Z,57.15
2022-09-24T18:16:09.794Z,57.14
2022-09-24T18:18:36.784Z,56.71
2022-09-24T18:21:05.833Z,57.32
2022-09-24T18:23:35.033Z,57.43
2022-09-24T18:26:11.922Z,57.59
2022-09-24T18:28:58.737Z,57.20
2022-09-24T18:31:28.927Z,57.81
2022-09-24T18:33:58.308Z,57.64
2022-09-24T18:36:28.240Z,57.76
2022-09-24T18:38:56.017Z,57.95
2022-09-24T18:41:24.953Z,57.94
2022-09-24T18:43:53.654Z,57.87
2022-09-24T18:46:22.070Z,57.56
2022-09-24T18:48:50.845Z,57.68
2022-09-24T18:51:23.772Z,58.16
2022-09-24T18:53:55.675Z,58.23
2022-09-24T18:56:24.168Z,58.31
2022-09-24T18:59:09.451Z,58.60
2022-09-24T19:01:37.502Z,58.24
2022-09-24T19:04:05.213Z,58.88
2022-09-24T19:06:34.203Z,58.48
2022-09-24T19:09:00.858Z,58.74
2022-09-24T19:11:28.124Z,59.05
2022-09-24T19:13:54.661Z,58.61
2022-09-24T19:16:23.783Z,59.05
2022-09-24T19:18:51.922Z,59.35
2022-09-24T19:21:19.068Z,58.85
2022-09-24T19:23:50.461Z,58.64
2022-09-24T19:26:22.568Z,58.79
2022-09-24T19:28:53.150Z,59.05
2022-09-24T19:31:22.896Z,59.33
2022-09-24T19:33:50.717Z,59.48
2022-09-24T19:36:17.675Z,59.43
2022-09-24T19:38:44.800Z,60.06
2022-09-24T19:41:14.994Z,59.83
2022-09-24T19:43:43.572Z,59.83
2022-09-24T19:46:12.848Z,59.92
2022-09-24T19:48:41.409Z,60.14
2022-09-24T19:51:12.604Z,60.53
2022-09-24T19:53:39.279Z,60.58
2022-09-24T19:56:07.844Z,61.27
2022-09-24T19:58:34.893Z,61.35
2022-09-24T20:01:06.940Z,60.90
2022-09-24T20:03:36.614Z,60.42
2022-09-24T20:06:11.787Z,60.94
2022-09-24T20:08:39.055Z,61.72
2022-09-24T20:11:07.589Z,61.46
2022-09-24T20:13:34.470Z,61.90
2022-09-24T20:16:03.550Z,62.09
2022-09-24T20:18:31.274Z,61.66
2022-09-24T20:21:05.468Z,61.91
2022-09-24T20:23:32.162Z,61.72
2022-09-24T20:26:17.285Z,61.40
2022-09-24T20:28:44.427Z,61.40
2022-09-24T20:31:15.140Z,61.56
2022-09-24T20:33:43.168Z,61.58
2022-09-24T20:36:16.544Z,61.81
2022-09-24T20:38:46.035Z,61.54
2022-09-24T20:41:15.221Z,61.10
2022-09-24T20:43:41.789Z,61.46
2022-09-24T20:46:14.284Z,61.82
2022-09-24T20:48:40.827Z,61.98
2022-09-24T20:51:12.094Z,61.78
2022-09-24T20:53:39.314Z,62.31
2022-09-24T20:56:06.460Z,62.13
2022-09-24T20:58:33.868Z,61.90
2022-09-24T21:01:01.074Z,62.68
2022-09-24T21:03:43.384Z,62.18
2022-09-24T21:06:12.740Z,62.77
2022-09-24T21:08:41.764Z,62.62
2022-09-24T21:11:13.609Z,62.81
2022-09-24T21:13:42.551Z,62.57
2022-09-24T21:16:10.256Z,63.07
2022-09-24T21:18:40.673Z,63.14
2022-09-24T21:21:15.472Z,63.38
2022-09-24T21:23:47.385Z,63.15
2022-09-24T21:26:15.507Z,63.26
2022-09-24T21:28:43.316Z,63.87
2022-09-24T21:31:10.210Z,63.74
2022-09-24T21:33:36.976Z,63.69
2022-09-24T21:36:05.702Z,64.14
2022-09-24T21:38:33.124Z,63.96
2022-09-24T21:41:01.387Z,64.23
2022-09-24T21:43:33.801Z,64.19
2022-09-24T21:46:05.025Z,64.34
2022-09-24T21:48:32.893Z,64.56
2022-09-24T21:51:07.141Z,64.38
2022-09-24T21:53:34.293Z,64.56
2022-09-24T21:56:02.272Z,64.75
2022-09-24T21:58:29.859Z,64.80
2022-09-24T22:01:00.921Z,64.84
2022-09-24T22:03:30.431Z,65.07
2022-09-24T22:05:59.329Z,65.37
2022-09-24T22:08:29.138Z,65.42
2022-09-24T22:11:07.748Z,65.59
2022-09-24T22:13:36.984Z,65.80
2022-09-24T22:16:05.646Z,65.81
2022-09-24T22:18:33.400Z,66.13
2022-09-24T22:21:04.639Z,66.21
2022-09-24T22:23:31.157Z,66.15
2022-09-24T22:25:59.446Z,66.15
2022-09-24T22:28:27.629Z,66.30
2022-09-24T22:30:59.424Z,66.41
2022-09-24T22:33:48.442Z,66.38
2022-09-24T22:36:15.751Z,66.98
2022-09-24T22:38:42.935Z,66.75
2022-09-24T22:41:11.057Z,66.71
2022-09-24T22:43:39.308Z,66.78
2022-09-24T22:46:08.932Z,67.15
2022-09-24T22:48:35.973Z,67.46
2022-09-24T22:51:04.245Z,67.14
2022-09-24T22:53:34.830Z,67.00
2022-09-24T22:56:10.334Z,66.94
2022-09-24T22:58:38.402Z,66.92
2022-09-24T23:01:09.643Z,67.19
2022-09-24T23:03:37.507Z,67.06
2022-09-24T23:06:08.306Z,67.02
2022-09-24T23:08:36.443Z,67.02
2022-09-24T23:11:07.166Z,66.83
2022-09-24T23:13:34.063Z,66.76
2022-09-24T23:16:10.257Z,66.48
2022-09-24T23:18:37.916Z,66.93
2022-09-24T23:21:10.057Z,67.04
2022-09-24T23:23:37.164Z,67.12
2022-09-24T23:26:16.260Z,67.38
2022-09-24T23:28:44.677Z,67.44
2022-09-24T23:31:14.256Z,67.71
2022-09-24T23:33:42.266Z,67.74
2022-09-24T23:36:11.272Z,68.23
2022-09-24T23:38:38.503Z,68.20
2022-09-24T23:41:06.461Z,68.38
2022-09-24T23:43:33.732Z,68.60
2022-09-24T23:46:01.304Z,68.97
2022-09-24T23:48:28.704Z,68.90
2022-09-24T23:50:55.775Z,69.27
2022-09-24T23:53:22.308Z,69.64
2022-09-24T23:55:49.858Z,69.72
2022-09-24T23:58:20.064Z,69.67
